Terminal Aerodrome Forecast
Issued by NWS

Home | Current Version | Previous Version | Graphics & Text | Print | Product List | Glossary On
Versions: 1 2 3 4 5 6 7 8 9 10 11 12 13 14 15 16 17 18 19 20 21 22 23 24 25 26 27
000
FTUS43 KGRB 221736
TAFMTW
TAF
KMTW 221736Z 2218/2318 36005KT 6SM HZ BKN015
     FM221900 15006KT 6SM HZ SCT020
     FM230100 VRB03KT P6SM FEW250
      TEMPO 2306/2308 4SM BR
     FM230800 VRB03KT 3SM BR SCT004
      TEMPO 2309/2313 1SM BR BKN004
     FM231400 VRB03KT P6SM SCT010
     FM231600 17009KT P6SM FEW020=

USA.gov is the U.S. government's official web portal to all federal, state and local government web resources and services.